createdAt,value
2018-06-08T00:00:35.634Z,7.50
2018-06-08T00:01:35.869Z,7.50
2018-06-08T00:02:36.103Z,7.00
2018-06-08T00:03:36.336Z,7.20
2018-06-08T00:04:36.568Z,7.20
2018-06-08T00:05:36.802Z,7.00
2018-06-08T00:06:37.035Z,7.40
2018-06-08T00:07:37.271Z,8.00
2018-06-08T00:08:37.502Z,6.90
2018-06-08T00:09:37.740Z,7.90
2018-06-08T00:10:37.968Z,7.10
2018-06-08T00:11:38.200Z,7.30
2018-06-08T00:12:38.431Z,7.30
2018-06-08T00:13:38.665Z,7.20
2018-06-08T00:14:38.897Z,7.90
2018-06-08T00:15:39.129Z,7.60
2018-06-08T00:16:39.362Z,7.40
2018-06-08T00:17:39.596Z,7.50
2018-06-08T00:18:39.832Z,7.80
2018-06-08T00:19:40.066Z,7.80
2018-06-08T00:20:40.297Z,7.60
2018-06-08T00:21:40.531Z,7.50
2018-06-08T00:22:40.765Z,6.90
2018-06-08T00:23:40.997Z,7.70
2018-06-08T00:24:41.230Z,7.50
2018-06-08T00:25:41.464Z,7.40
2018-06-08T00:26:41.696Z,7.60
2018-06-08T00:27:41.932Z,8.10
2018-06-08T00:28:42.162Z,7.90
2018-06-08T00:29:42.397Z,7.40
2018-06-08T00:30:42.630Z,7.20
2018-06-08T00:31:42.862Z,7.90
2018-06-08T00:32:43.100Z,7.30
2018-06-08T00:33:43.325Z,7.70
2018-06-08T00:34:43.560Z,7.60
2018-06-08T00:35:43.794Z,7.80
2018-06-08T00:36:44.027Z,7.10
2018-06-08T00:37:44.260Z,7.30
2018-06-08T00:38:44.485Z,7.00
2018-06-08T00:39:44.719Z,7.00
2018-06-08T00:40:44.954Z,7.70
2018-06-08T00:41:45.187Z,7.20
2018-06-08T00:42:45.418Z,7.60
2018-06-08T00:43:45.655Z,7.80
2018-06-08T00:44:45.888Z,7.00
2018-06-08T00:45:46.119Z,7.40
2018-06-08T00:46:46.352Z,7.10
2018-06-08T00:47:46.584Z,7.70
2018-06-08T00:48:46.816Z,7.40
2018-06-08T00:49:47.052Z,6.80
2018-06-08T00:50:47.286Z,7.30
2018-06-08T00:51:47.525Z,6.70
2018-06-08T00:52:47.749Z,7.60
2018-06-08T00:53:47.981Z,8.00
2018-06-08T00:54:48.258Z,7.40
2018-06-08T00:55:48.492Z,7.00
2018-06-08T00:56:48.723Z,7.70
2018-06-08T00:57:48.960Z,7.70
2018-06-08T00:58:49.187Z,7.80
2018-06-08T00:59:49.420Z,7.50
2018-06-08T01:00:49.652Z,7.70
2018-06-08T01:01:49.885Z,7.10
2018-06-08T01:02:50.117Z,7.40
2018-06-08T01:03:50.349Z,7.70
2018-06-08T01:04:50.583Z,7.80
2018-06-08T01:05:50.814Z,7.50
2018-06-08T01:06:51.050Z,7.60
2018-06-08T01:07:51.282Z,8.10
2018-06-08T01:08:51.513Z,8.60
2018-06-08T01:09:51.746Z,8.90
2018-06-08T01:10:51.980Z,8.50
2018-06-08T01:11:52.212Z,8.10
2018-06-08T01:12:52.445Z,8.70
2018-06-08T01:13:52.684Z,8.20
2018-06-08T01:14:52.909Z,8.90
2018-06-08T01:15:53.143Z,8.20
2018-06-08T01:16:53.380Z,7.90
2018-06-08T01:17:53.611Z,7.70
2018-06-08T01:18:53.843Z,8.80
2018-06-08T01:19:54.076Z,8.30
2018-06-08T01:20:54.308Z,8.70
2018-06-08T01:21:54.542Z,7.90
2018-06-08T01:22:54.773Z,8.80
2018-06-08T01:23:55.006Z,8.40
2018-06-08T01:24:55.238Z,7.90
2018-06-08T01:25:55.471Z,9.10
2018-06-08T01:26:55.704Z,8.00
2018-06-08T01:27:55.935Z,7.00
2018-06-08T01:28:56.168Z,8.00
2018-06-08T01:29:56.404Z,8.30
2018-06-08T01:30:56.636Z,7.90
2018-06-08T01:31:56.867Z,8.10
2018-06-08T01:32:57.101Z,8.20
2018-06-08T01:33:57.330Z,8.30
2018-06-08T01:34:57.564Z,8.20
2018-06-08T01:35:57.795Z,7.60
2018-06-08T01:36:58.028Z,8.20
2018-06-08T01:37:58.269Z,7.50
2018-06-08T01:38:58.491Z,8.20
2018-06-08T01:39:58.726Z,7.40
2018-06-08T01:40:58.962Z,7.70
2018-06-08T01:41:59.195Z,8.10
2018-06-08T01:42:59.426Z,8.00
2018-06-08T01:43:59.662Z,8.50
2018-06-08T01:44:59.894Z,8.00
2018-06-08T01:46:00.124Z,8.00
2018-06-08T01:47:00.357Z,7.50
2018-06-08T01:48:00.588Z,7.70
2018-06-08T01:49:00.822Z,7.90
2018-06-08T01:50:01.054Z,8.40
2018-06-08T01:51:01.287Z,7.90
2018-06-08T01:52:01.518Z,7.40
2018-06-08T01:53:01.750Z,7.80
2018-06-08T01:54:01.981Z,7.90
2018-06-08T01:55:02.214Z,7.80
2018-06-08T01:56:02.446Z,7.90
2018-06-08T01:57:02.679Z,7.50
2018-06-08T01:58:02.912Z,7.60
2018-06-08T01:59:03.149Z,7.70
2018-06-08T02:00:03.378Z,8.10
2018-06-08T02:01:03.611Z,8.00
2018-06-08T02:02:03.845Z,7.40
2018-06-08T02:03:04.078Z,7.50
2018-06-08T02:04:04.343Z,7.60
2018-06-08T02:05:04.583Z,7.50
2018-06-08T02:06:04.815Z,7.70
2018-06-08T02:07:05.050Z,7.80
2018-06-08T02:08:05.281Z,8.70
2018-06-08T02:09:05.511Z,8.10
2018-06-08T02:10:05.745Z,7.40
2018-06-08T02:11:05.977Z,8.20
2018-06-08T02:12:06.210Z,7.90
2018-06-08T02:13:06.443Z,8.60
2018-06-08T02:14:06.673Z,7.40
2018-06-08T02:15:06.908Z,7.80
2018-06-08T02:16:07.142Z,8.30
2018-06-08T02:17:07.376Z,8.20
2018-06-08T02:18:07.612Z,7.80
2018-06-08T02:19:07.843Z,7.90
2018-06-08T02:20:08.075Z,7.30
2018-06-08T02:21:08.307Z,7.70
2018-06-08T02:22:08.540Z,8.20
2018-06-08T02:23:08.775Z,7.60
2018-06-08T02:24:09.003Z,7.80
2018-06-08T02:25:09.239Z,7.30
2018-06-08T02:26:09.470Z,8.10
2018-06-08T02:27:09.704Z,7.70
2018-06-08T02:28:09.936Z,7.50
2018-06-08T02:29:10.169Z,7.90
2018-06-08T02:30:10.402Z,7.90
2018-06-08T02:31:10.638Z,8.20
2018-06-08T02:32:10.863Z,8.00
2018-06-08T02:33:11.096Z,7.90
2018-06-08T02:34:11.332Z,8.60
2018-06-08T02:35:11.560Z,8.10
2018-06-08T02:36:11.793Z,9.40
2018-06-08T02:37:12.025Z,8.40
2018-06-08T02:38:12.264Z,8.10
2018-06-08T02:39:12.496Z,8.00
2018-06-08T02:40:12.723Z,8.50
2018-06-08T02:41:12.957Z,8.40
2018-06-08T02:42:13.190Z,8.70
2018-06-08T02:43:13.424Z,8.40
2018-06-08T02:44:13.661Z,7.90
2018-06-08T02:45:13.886Z,7.80
2018-06-08T02:46:14.114Z,7.70
2018-06-08T02:47:14.348Z,7.70
2018-06-08T02:48:14.584Z,8.00
2018-06-08T02:49:14.817Z,7.50
2018-06-08T02:50:15.049Z,7.30
2018-06-08T02:51:15.283Z,7.80
2018-06-08T02:52:15.516Z,7.90
2018-06-08T02:53:15.747Z,7.40
2018-06-08T02:54:15.981Z,7.40
2018-06-08T02:55:16.216Z,8.30
2018-06-08T02:56:16.449Z,7.30
2018-06-08T02:57:16.681Z,7.90
2018-06-08T02:58:16.914Z,7.30
2018-06-08T02:59:17.149Z,7.80
2018-06-08T03:00:17.386Z,8.30
2018-06-08T03:01:17.617Z,8.30
2018-06-08T03:02:17.850Z,8.20
2018-06-08T03:03:18.083Z,7.80
2018-06-08T03:04:18.314Z,7.80
2018-06-08T03:05:18.559Z,7.70
2018-06-08T03:06:18.779Z,7.80
2018-06-08T03:07:19.013Z,8.50
2018-06-08T03:08:19.247Z,8.00
2018-06-08T03:09:19.481Z,7.80
2018-06-08T03:10:19.728Z,8.50
2018-06-08T03:11:19.945Z,8.40
2018-06-08T03:12:20.178Z,7.90
2018-06-08T03:13:20.408Z,7.90
2018-06-08T03:14:20.644Z,8.60
2018-06-08T03:15:20.874Z,7.40
2018-06-08T03:16:21.105Z,7.70
2018-06-08T03:17:21.342Z,8.80
2018-06-08T03:18:21.573Z,8.50
2018-06-08T03:19:21.807Z,8.40
2018-06-08T03:20:22.038Z,8.50
2018-06-08T03:21:22.268Z,8.10
2018-06-08T03:22:22.504Z,8.60
2018-06-08T03:23:22.737Z,8.20
2018-06-08T03:24:22.968Z,8.40
2018-06-08T03:25:23.201Z,8.40
2018-06-08T03:26:23.434Z,8.50
2018-06-08T03:27:23.667Z,8.30
2018-06-08T03:28:23.901Z,9.10
2018-06-08T03:29:24.132Z,9.30
2018-06-08T03:30:24.365Z,9.00
2018-06-08T03:31:24.601Z,8.80
2018-06-08T03:32:24.832Z,9.10
2018-06-08T03:33:25.065Z,9.40
2018-06-08T03:34:25.301Z,9.80
2018-06-08T03:35:25.534Z,9.10
2018-06-08T03:36:25.766Z,9.10
2018-06-08T03:37:25.999Z,9.30
2018-06-08T03:38:26.234Z,9.80
2018-06-08T03:39:26.467Z,9.30
2018-06-08T03:40:26.700Z,9.80
2018-06-08T03:41:26.935Z,9.10
2018-06-08T03:42:27.160Z,9.70
2018-06-08T03:43:27.408Z,9.40
2018-06-08T03:44:27.644Z,10.00
2018-06-08T03:45:27.875Z,9.70
2018-06-08T03:46:28.109Z,9.50
2018-06-08T03:47:28.342Z,8.90
2018-06-08T03:48:28.576Z,8.90
2018-06-08T03:49:28.809Z,9.70
2018-06-08T03:50:29.045Z,9.40
2018-06-08T03:51:29.277Z,9.00
2018-06-08T03:52:29.508Z,9.30
2018-06-08T03:53:29.743Z,9.30
2018-06-08T03:54:29.978Z,9.80
2018-06-08T03:55:30.214Z,10.00
2018-06-08T03:56:30.443Z,9.00
2018-06-08T03:57:30.673Z,10.60
2018-06-08T03:58:30.906Z,8.90
2018-06-08T03:59:31.140Z,10.00
2018-06-08T04:00:31.377Z,9.10
2018-06-08T04:01:31.608Z,9.00
2018-06-08T04:02:31.895Z,9.30
2018-06-08T04:03:32.079Z,9.10
2018-06-08T04:04:32.304Z,9.20
2018-06-08T04:05:32.540Z,8.40
2018-06-08T04:06:32.773Z,9.10
2018-06-08T04:07:33.005Z,8.30
2018-06-08T04:08:33.236Z,9.00
2018-06-08T04:09:33.472Z,8.40
2018-06-08T04:10:33.704Z,7.80
2018-06-08T04:11:33.938Z,7.80
2018-06-08T04:12:34.168Z,8.50
2018-06-08T04:13:34.401Z,8.70
2018-06-08T04:14:34.635Z,7.70
2018-06-08T04:15:34.868Z,9.10
2018-06-08T04:16:35.101Z,8.10
2018-06-08T04:17:35.334Z,8.60
2018-06-08T04:18:35.569Z,9.50
2018-06-08T04:19:35.806Z,8.40
2018-06-08T04:20:36.037Z,8.50
2018-06-08T04:21:36.271Z,8.40
2018-06-08T04:22:36.502Z,7.90
2018-06-08T04:23:36.735Z,8.30
2018-06-08T04:24:36.967Z,8.30
2018-06-08T04:25:37.198Z,8.60
2018-06-08T04:26:37.432Z,8.80
2018-06-08T04:27:37.665Z,8.70
2018-06-08T04:28:37.898Z,8.90
2018-06-08T04:29:38.130Z,9.10
2018-06-08T04:30:38.362Z,8.90
2018-06-08T04:31:38.595Z,8.80
2018-06-08T04:32:38.849Z,8.70
2018-06-08T04:33:39.060Z,8.60
2018-06-08T04:34:39.294Z,9.10
2018-06-08T04:35:39.530Z,8.70
2018-06-08T04:36:39.772Z,9.10
2018-06-08T04:37:40.001Z,9.50
2018-06-08T04:38:40.234Z,8.70
2018-06-08T04:39:40.468Z,8.70
2018-06-08T04:40:40.697Z,9.10
2018-06-08T04:41:40.933Z,9.00
2018-06-08T04:42:41.161Z,8.40
2018-06-08T04:43:41.395Z,8.70
2018-06-08T04:44:41.631Z,8.60
2018-06-08T04:45:41.862Z,8.20
2018-06-08T04:46:42.095Z,8.80
2018-06-08T04:47:42.325Z,9.60
2018-06-08T04:48:42.559Z,9.20
2018-06-08T04:49:42.794Z,8.50
2018-06-08T04:50:43.035Z,9.70
2018-06-08T04:51:43.310Z,9.00
2018-06-08T04:52:43.493Z,9.10
2018-06-08T04:53:43.727Z,10.00
2018-06-08T04:54:43.958Z,9.20
2018-06-08T04:55:44.193Z,9.40
2018-06-08T04:56:44.426Z,9.20
2018-06-08T04:57:44.660Z,9.10
2018-06-08T04:58:44.892Z,9.60
2018-06-08T04:59:45.127Z,9.20
2018-06-08T05:00:45.359Z,10.20
2018-06-08T05:01:45.590Z,9.10
2018-06-08T05:02:45.824Z,8.90
2018-06-08T05:03:46.063Z,9.20
2018-06-08T05:04:46.301Z,9.30
2018-06-08T05:05:46.531Z,9.60
2018-06-08T05:06:46.764Z,9.50
2018-06-08T05:07:46.995Z,9.30
2018-06-08T05:08:47.228Z,8.80
2018-06-08T05:09:47.463Z,9.50
2018-06-08T05:10:47.697Z,9.50
2018-06-08T05:11:47.929Z,9.50
2018-06-08T05:12:48.161Z,9.60
2018-06-08T05:13:48.393Z,9.40
2018-06-08T05:14:48.627Z,10.20
2018-06-08T05:15:48.864Z,9.60
2018-06-08T05:16:49.099Z,10.20
2018-06-08T05:17:49.331Z,9.20
2018-06-08T05:18:49.565Z,9.30
2018-06-08T05:19:49.796Z,9.40
2018-06-08T05:20:50.032Z,9.10
2018-06-08T05:21:50.262Z,10.30
2018-06-08T05:22:50.495Z,10.10
2018-06-08T05:23:50.727Z,9.50
2018-06-08T05:24:50.962Z,9.70
2018-06-08T05:25:51.194Z,9.50
2018-06-08T05:26:51.426Z,9.70
2018-06-08T05:27:51.659Z,9.60
2018-06-08T05:28:51.893Z,9.60
2018-06-08T05:29:52.124Z,9.80
2018-06-08T05:30:52.357Z,9.80
2018-06-08T05:31:52.597Z,9.20
2018-06-08T05:32:52.827Z,9.10
2018-06-08T05:33:53.053Z,9.00
2018-06-08T05:34:53.286Z,8.70
2018-06-08T05:35:53.523Z,9.10
2018-06-08T05:36:53.760Z,9.40
2018-06-08T05:37:53.988Z,8.70
2018-06-08T05:38:54.221Z,8.90
2018-06-08T05:39:54.454Z,8.50
2018-06-08T05:40:54.689Z,8.80
2018-06-08T05:41:54.923Z,8.80
2018-06-08T05:42:55.158Z,9.20
2018-06-08T05:43:55.392Z,8.60
2018-06-08T05:44:55.624Z,8.80
2018-06-08T05:45:55.857Z,8.30
2018-06-08T05:46:56.095Z,9.00
2018-06-08T05:47:56.324Z,9.30
2018-06-08T05:48:56.561Z,9.50
2018-06-08T05:49:57.259Z,9.40
2018-06-08T05:50:56.990Z,9.70
2018-06-08T05:51:57.219Z,9.50
2018-06-08T05:52:57.452Z,9.80
2018-06-08T05:53:57.684Z,9.20
2018-06-08T05:54:57.920Z,9.30
2018-06-08T05:55:58.152Z,9.20
2018-06-08T05:56:58.384Z,9.90
2018-06-08T05:57:58.623Z,10.10
2018-06-08T05:58:58.848Z,9.30
2018-06-08T05:59:59.084Z,10.20
2018-06-08T06:00:59.318Z,9.70
2018-06-08T06:01:59.549Z,10.10
2018-06-08T06:02:59.784Z,9.40
2018-06-08T06:04:00.018Z,9.30
2018-06-08T06:05:00.252Z,9.10
2018-06-08T06:06:00.494Z,9.20
2018-06-08T06:07:00.723Z,9.90
2018-06-08T06:08:00.953Z,10.50
2018-06-08T06:09:01.196Z,9.50
2018-06-08T06:10:01.426Z,10.00
2018-06-08T06:11:01.658Z,10.90
2018-06-08T06:12:01.902Z,10.40
2018-06-08T06:13:02.117Z,10.60
2018-06-08T06:14:02.351Z,9.70
2018-06-08T06:15:02.593Z,10.80
2018-06-08T06:16:02.818Z,11.20
2018-06-08T06:17:03.059Z,11.30
2018-06-08T06:18:03.287Z,11.30
2018-06-08T06:19:03.525Z,11.30
2018-06-08T06:20:03.758Z,10.90
2018-06-08T06:21:03.998Z,10.60
2018-06-08T06:22:04.225Z,9.80
2018-06-08T06:23:04.464Z,9.60
2018-06-08T06:24:04.695Z,11.00
2018-06-08T06:25:04.956Z,10.10
2018-06-08T06:26:05.165Z,10.50
2018-06-08T06:27:05.390Z,10.50
2018-06-08T06:28:05.638Z,10.10
2018-06-08T06:29:05.874Z,10.40
2018-06-08T06:30:06.108Z,10.10
2018-06-08T06:31:06.343Z,10.40
2018-06-08T06:32:06.577Z,10.40
2018-06-08T06:33:07.037Z,9.50
2018-06-08T06:34:07.014Z,9.30
2018-06-08T06:35:07.372Z,9.90
2018-06-08T06:36:07.609Z,9.90
2018-06-08T06:37:07.654Z,11.00
2018-06-08T06:38:07.893Z,10.40
2018-06-08T06:39:08.125Z,10.40
2018-06-08T06:40:08.364Z,9.60
2018-06-08T06:41:08.596Z,9.60
2018-06-08T06:42:08.831Z,9.70
2018-06-08T06:43:09.066Z,10.40
2018-06-08T06:44:09.302Z,10.60
2018-06-08T06:45:09.537Z,10.30
2018-06-08T06:46:09.773Z,9.70
2018-06-08T06:47:10.009Z,10.10
2018-06-08T06:48:10.244Z,9.60
2018-06-08T06:49:10.492Z,9.50
2018-06-08T06:50:10.719Z,9.90
2018-06-08T06:51:11.111Z,8.90
2018-06-08T06:52:11.470Z,8.90
2018-06-08T06:53:12.041Z,9.30
2018-06-08T06:54:12.220Z,8.80
2018-06-08T06:55:12.577Z,9.10
2018-06-08T06:56:12.636Z,10.30
2018-06-08T06:57:12.497Z,9.20
2018-06-08T06:58:12.859Z,8.40
2018-06-08T06:59:13.126Z,8.50
2018-06-08T07:00:13.344Z,9.80
2018-06-08T07:01:13.552Z,8.80
2018-06-08T07:02:13.808Z,9.50
2018-06-08T07:03:14.047Z,9.90
2018-06-08T07:04:14.999Z,8.60
2018-06-08T07:05:14.441Z,8.50
2018-06-08T07:06:14.710Z,8.60
2018-06-08T07:07:14.959Z,9.10
2018-06-08T07:08:15.123Z,7.80
2018-06-08T07:09:15.386Z,7.70
2018-06-08T07:10:15.621Z,8.50
2018-06-08T07:11:16.044Z,8.00
2018-06-08T07:12:16.146Z,8.20
2018-06-08T07:13:16.634Z,8.30
2018-06-08T07:14:17.091Z,8.20
2018-06-08T07:15:16.764Z,9.20
2018-06-08T07:16:16.867Z,9.00
2018-06-08T07:17:17.101Z,8.90
2018-06-08T07:18:17.339Z,8.80
2018-06-08T07:19:17.574Z,9.10
2018-06-08T07:20:17.811Z,9.50
2018-06-08T07:21:18.047Z,9.60
2018-06-08T07:22:18.282Z,9.10
2018-06-08T07:23:18.517Z,8.80
2018-06-08T07:24:18.753Z,8.00
2018-06-08T07:25:18.990Z,8.50
2018-06-08T07:26:19.226Z,7.90
2018-06-08T07:27:19.465Z,8.40
2018-06-08T07:28:19.700Z,8.50
2018-06-08T07:29:19.939Z,8.60
2018-06-08T07:30:20.175Z,7.40
2018-06-08T07:31:20.410Z,7.70
2018-06-08T07:32:20.647Z,8.20
2018-06-08T07:33:20.887Z,7.30
2018-06-08T07:34:21.159Z,7.80
2018-06-08T07:35:21.359Z,7.70
2018-06-08T07:36:21.595Z,7.50
2018-06-08T07:37:21.834Z,7.80
2018-06-08T07:38:22.069Z,7.60
2018-06-08T07:39:22.305Z,7.50
2018-06-08T07:40:22.542Z,7.00
2018-06-08T07:41:22.778Z,7.50
2018-06-08T07:42:23.014Z,7.70
2018-06-08T07:43:23.251Z,7.60
2018-06-08T07:44:23.489Z,7.60
2018-06-08T07:45:23.726Z,7.50
2018-06-08T07:46:23.962Z,7.20
2018-06-08T07:47:24.206Z,7.30
2018-06-08T07:48:24.436Z,7.10
2018-06-08T07:49:24.672Z,7.80
2018-06-08T07:50:24.908Z,9.00
2018-06-08T07:51:25.147Z,8.10
2018-06-08T07:52:25.386Z,8.70
2018-06-08T07:53:25.620Z,7.10
2018-06-08T07:54:25.857Z,7.90
2018-06-08T07:55:26.097Z,7.60
2018-06-08T07:56:26.332Z,7.60
2018-06-08T07:57:26.571Z,8.20
2018-06-08T07:58:26.806Z,7.60
2018-06-08T07:59:27.045Z,8.30
2018-06-08T08:00:27.287Z,8.00
2018-06-08T08:01:27.525Z,8.20
2018-06-08T08:02:27.777Z,8.00
2018-06-08T08:03:28.005Z,7.20
2018-06-08T08:04:28.248Z,8.10
2018-06-08T08:05:28.487Z,7.70
2018-06-08T08:06:28.726Z,7.60
2018-06-08T08:07:28.963Z,8.00
2018-06-08T08:08:29.199Z,7.50
2018-06-08T08:09:29.438Z,7.00
2018-06-08T08:10:29.675Z,7.40
2018-06-08T08:11:29.914Z,6.80
2018-06-08T08:12:30.151Z,7.30
2018-06-08T08:13:30.396Z,7.00
2018-06-08T08:14:30.634Z,6.50
2018-06-08T08:15:30.868Z,6.50
2018-06-08T08:16:31.104Z,6.80
2018-06-08T08:17:31.346Z,6.70
2018-06-08T08:18:31.634Z,6.40
2018-06-08T08:19:31.821Z,6.50
2018-06-08T08:20:32.059Z,6.60
2018-06-08T08:21:32.299Z,6.20
2018-06-08T08:22:32.541Z,6.30
2018-06-08T08:23:32.777Z,6.50
2018-06-08T08:24:33.013Z,6.30
2018-06-08T08:25:33.252Z,6.70
2018-06-08T08:26:33.489Z,6.40
2018-06-08T08:27:33.731Z,6.30
2018-06-08T08:28:33.967Z,6.60
2018-06-08T08:29:34.207Z,6.90
2018-06-08T08:30:34.446Z,6.70
2018-06-08T08:31:34.685Z,7.40
2018-06-08T08:32:34.922Z,7.20
2018-06-08T08:33:35.160Z,6.20
2018-06-08T08:34:35.400Z,6.20
2018-06-08T08:35:35.646Z,7.20
2018-06-08T08:36:35.884Z,5.80
2018-06-08T08:37:36.122Z,6.80
2018-06-08T08:38:36.359Z,6.90
2018-06-08T08:39:36.626Z,6.10
2018-06-08T08:40:36.843Z,6.30
2018-06-08T08:41:37.078Z,6.10
2018-06-08T08:42:37.317Z,6.90
2018-06-08T08:43:37.556Z,7.20
2018-06-08T08:44:37.794Z,7.00
2018-06-08T08:45:38.073Z,6.90
2018-06-08T08:46:38.276Z,6.70
2018-06-08T08:47:38.516Z,6.60
2018-06-08T08:48:38.754Z,6.60
2018-06-08T08:49:38.993Z,6.50
2018-06-08T08:50:39.232Z,6.50
2018-06-08T08:51:39.520Z,6.80
2018-06-08T08:52:39.709Z,6.60
2018-06-08T08:53:39.951Z,6.00
2018-06-08T08:54:40.186Z,6.40
2018-06-08T08:55:40.431Z,6.70
2018-06-08T08:56:40.664Z,6.10
2018-06-08T08:57:40.906Z,6.30
2018-06-08T08:58:41.154Z,7.40
2018-06-08T08:59:41.386Z,7.10
2018-06-08T09:00:41.624Z,6.10
2018-06-08T09:01:41.863Z,6.80
2018-06-08T09:02:42.107Z,6.50
2018-06-08T09:03:42.344Z,6.80
2018-06-08T09:04:42.584Z,6.40
2018-06-08T09:05:42.821Z,6.40
2018-06-08T09:06:43.056Z,6.30
2018-06-08T09:07:43.300Z,6.40
2018-06-08T09:08:43.539Z,6.50
2018-06-08T09:09:43.780Z,6.90
2018-06-08T09:10:44.018Z,6.70
2018-06-08T09:11:44.262Z,6.60
2018-06-08T09:12:44.505Z,6.50
2018-06-08T09:13:44.746Z,6.40
2018-06-08T09:14:44.986Z,6.90
2018-06-08T09:15:45.225Z,6.60
2018-06-08T09:16:45.466Z,6.80
2018-06-08T09:17:45.704Z,7.20
2018-06-08T09:18:45.945Z,6.70
2018-06-08T09:19:46.184Z,6.10
2018-06-08T09:20:46.422Z,6.50
2018-06-08T09:21:46.658Z,6.60
2018-06-08T09:22:46.897Z,6.40
2018-06-08T09:23:47.139Z,6.40
2018-06-08T09:24:47.402Z,6.10
2018-06-08T09:25:47.638Z,6.00
2018-06-08T09:26:47.876Z,6.60
2018-06-08T09:27:48.113Z,6.30
2018-06-08T09:28:48.358Z,6.30
2018-06-08T09:29:48.595Z,6.00
2018-06-08T09:30:48.835Z,6.10
2018-06-08T09:31:49.077Z,6.50
2018-06-08T09:32:49.312Z,6.20
2018-06-08T09:33:49.552Z,6.40
2018-06-08T09:34:49.790Z,5.70
2018-06-08T09:35:50.032Z,6.00
2018-06-08T09:36:50.275Z,6.50
2018-06-08T09:37:50.515Z,6.00
2018-06-08T09:38:50.752Z,6.30
2018-06-08T09:39:50.990Z,5.90
2018-06-08T09:40:51.230Z,5.60
2018-06-08T09:41:51.475Z,6.40
2018-06-08T09:42:51.711Z,6.70
2018-06-08T09:43:51.950Z,6.50
2018-06-08T09:44:52.190Z,6.60
2018-06-08T09:45:52.430Z,6.10
2018-06-08T09:46:52.669Z,6.50
2018-06-08T09:47:52.907Z,5.40
2018-06-08T09:48:53.148Z,5.90
2018-06-08T09:49:53.387Z,5.80
2018-06-08T09:50:53.627Z,5.70
2018-06-08T09:51:53.869Z,6.10
2018-06-08T09:52:54.104Z,6.10
2018-06-08T09:53:54.345Z,5.80
2018-06-08T09:54:54.588Z,5.80
2018-06-08T09:55:54.830Z,6.40
2018-06-08T09:56:55.066Z,6.20
2018-06-08T09:57:55.306Z,5.90
2018-06-08T09:58:55.546Z,5.50
2018-06-08T09:59:55.788Z,5.90
2018-06-08T10:00:56.027Z,5.50
2018-06-08T10:01:56.263Z,5.20
2018-06-08T10:02:56.502Z,5.60
2018-06-08T10:03:56.741Z,6.40
2018-06-08T10:04:56.982Z,5.80
2018-06-08T10:05:57.222Z,5.50
2018-06-08T10:06:57.461Z,5.80
2018-06-08T10:07:57.712Z,5.80
2018-06-08T10:08:57.943Z,5.70
2018-06-08T10:09:58.181Z,6.10
2018-06-08T10:10:58.426Z,5.60
2018-06-08T10:11:58.663Z,5.80
2018-06-08T10:12:58.905Z,5.90
2018-06-08T10:13:59.145Z,6.00
2018-06-08T10:14:59.383Z,5.50
2018-06-08T10:15:59.626Z,5.70
2018-06-08T10:16:59.870Z,5.70
2018-06-08T10:18:00.111Z,5.20
2018-06-08T10:19:00.350Z,5.50
2018-06-08T10:20:00.588Z,5.40
2018-06-08T10:21:00.830Z,5.90
2018-06-08T10:22:01.116Z,5.40
2018-06-08T10:23:01.316Z,5.40
2018-06-08T10:24:01.552Z,5.80
2018-06-08T10:25:01.817Z,5.30
2018-06-08T10:26:02.029Z,5.20
2018-06-08T10:27:02.273Z,5.60
2018-06-08T10:28:02.513Z,5.20
2018-06-08T10:29:02.775Z,5.30
2018-06-08T10:30:02.995Z,5.70
2018-06-08T10:31:03.235Z,5.70
2018-06-08T10:32:03.476Z,5.80
2018-06-08T10:33:03.716Z,5.40
2018-06-08T10:34:03.964Z,5.00
2018-06-08T10:35:04.200Z,7.50
2018-06-08T10:36:04.435Z,5.20
2018-06-08T10:37:04.674Z,5.80
2018-06-08T10:38:04.919Z,6.00
2018-06-08T10:39:05.158Z,5.80
2018-06-08T10:40:05.402Z,5.50
2018-06-08T10:41:05.641Z,6.20
2018-06-08T10:42:05.881Z,5.80
2018-06-08T10:43:06.125Z,5.60
2018-06-08T10:44:06.360Z,5.80
2018-06-08T10:45:06.607Z,5.40
2018-06-08T10:46:06.843Z,6.10
2018-06-08T10:47:07.083Z,5.30
2018-06-08T10:48:07.324Z,6.20
2018-06-08T10:49:07.570Z,6.00
2018-06-08T10:50:07.806Z,5.90
2018-06-08T10:51:08.044Z,6.30
2018-06-08T10:52:08.286Z,5.60
2018-06-08T10:53:08.527Z,6.30
2018-06-08T10:54:08.763Z,6.00
2018-06-08T10:55:09.006Z,5.90
2018-06-08T10:56:09.247Z,5.80
2018-06-08T10:57:09.487Z,5.50
2018-06-08T10:58:09.729Z,5.50
2018-06-08T10:59:09.969Z,5.90
2018-06-08T11:00:10.212Z,5.50
2018-06-08T11:01:10.451Z,5.10
2018-06-08T11:02:10.691Z,5.10
2018-06-08T11:03:10.932Z,5.60
2018-06-08T11:04:11.176Z,5.70
2018-06-08T11:05:11.413Z,5.40
2018-06-08T11:06:11.653Z,5.20
2018-06-08T11:07:11.896Z,5.30
2018-06-08T11:08:12.136Z,5.40
2018-06-08T11:09:12.376Z,5.60
2018-06-08T11:10:12.616Z,6.00
2018-06-08T11:11:12.856Z,5.80
2018-06-08T11:12:13.103Z,5.60
2018-06-08T11:13:13.340Z,5.50
2018-06-08T11:14:13.579Z,5.60
2018-06-08T11:15:13.822Z,5.90
2018-06-08T11:16:14.064Z,5.20
2018-06-08T11:17:14.304Z,5.30
2018-06-08T11:18:14.564Z,5.50
2018-06-08T11:19:14.797Z,5.50
2018-06-08T11:20:15.047Z,5.40
2018-06-08T11:21:15.284Z,4.90
2018-06-08T11:22:15.527Z,4.60
2018-06-08T11:23:15.765Z,4.60
2018-06-08T11:24:16.010Z,5.10
2018-06-08T11:25:16.250Z,4.90
2018-06-08T11:26:16.495Z,4.70
2018-06-08T11:27:16.733Z,4.20
2018-06-08T11:28:16.976Z,4.70
2018-06-08T11:29:17.215Z,4.70
2018-06-08T11:30:17.459Z,5.00
2018-06-08T11:31:17.701Z,5.00
2018-06-08T11:32:17.942Z,5.00
2018-06-08T11:33:18.183Z,5.60
2018-06-08T11:34:18.424Z,5.60
2018-06-08T11:35:18.664Z,5.70
2018-06-08T11:36:18.908Z,5.10
2018-06-08T11:37:19.152Z,5.50
2018-06-08T11:38:19.391Z,5.10
2018-06-08T11:39:19.670Z,4.80
2018-06-08T11:40:19.878Z,5.80
2018-06-08T11:41:20.118Z,7.00
2018-06-08T11:42:20.360Z,6.30
2018-06-08T11:43:20.599Z,5.70
2018-06-08T11:44:20.839Z,5.60
2018-06-08T11:45:21.082Z,5.10
2018-06-08T11:46:21.321Z,5.60
2018-06-08T11:47:21.564Z,5.70
2018-06-08T11:48:21.804Z,4.90
2018-06-08T11:49:22.046Z,5.30
2018-06-08T11:50:22.287Z,5.90
2018-06-08T11:51:22.531Z,5.90
2018-06-08T11:52:22.769Z,5.20
2018-06-08T11:53:23.007Z,5.80
2018-06-08T11:54:23.249Z,5.70
2018-06-08T11:55:23.488Z,5.40
2018-06-08T11:56:23.732Z,5.80
2018-06-08T11:57:23.973Z,5.80
2018-06-08T11:58:24.213Z,6.30
2018-06-08T11:59:24.457Z,6.30
2018-06-08T12:00:24.698Z,7.00
2018-06-08T12:01:24.933Z,7.30
2018-06-08T12:02:25.173Z,7.20
2018-06-08T12:03:25.413Z,6.20
2018-06-08T12:04:25.656Z,5.40
2018-06-08T12:05:25.897Z,5.60
2018-06-08T12:06:26.135Z,5.80
2018-06-08T12:07:26.372Z,6.40
2018-06-08T12:08:26.615Z,6.80
2018-06-08T12:09:26.856Z,6.90
2018-06-08T12:10:27.094Z,6.90
2018-06-08T12:11:27.336Z,6.00
2018-06-08T12:12:27.578Z,5.60
2018-06-08T12:13:27.820Z,5.70
2018-06-08T12:14:28.057Z,5.60
2018-06-08T12:15:28.297Z,6.40
2018-06-08T12:16:28.539Z,5.60
2018-06-08T12:17:28.778Z,5.70
2018-06-08T12:18:29.017Z,5.60
2018-06-08T12:19:29.255Z,5.50
2018-06-08T12:20:29.493Z,5.70
2018-06-08T12:21:29.741Z,6.30
2018-06-08T12:22:29.981Z,6.90
2018-06-08T12:23:30.216Z,6.40
2018-06-08T12:24:30.457Z,7.40
2018-06-08T12:25:30.701Z,6.90
2018-06-08T12:26:30.939Z,6.00
2018-06-08T12:27:31.179Z,6.40
2018-06-08T12:28:31.421Z,5.60
2018-06-08T12:29:31.663Z,6.10
2018-06-08T12:30:31.902Z,5.10
2018-06-08T12:31:32.142Z,5.20
2018-06-08T12:32:32.385Z,5.90
2018-06-08T12:33:32.628Z,5.30
2018-06-08T12:34:32.909Z,5.80
2018-06-08T12:35:33.105Z,6.20
2018-06-08T12:36:33.347Z,5.90
2018-06-08T12:37:33.585Z,5.30
2018-06-08T12:38:33.828Z,4.80
2018-06-08T12:39:34.072Z,5.10
2018-06-08T12:40:34.312Z,5.20
2018-06-08T12:41:34.553Z,5.20
2018-06-08T12:42:34.792Z,5.20
2018-06-08T12:43:35.053Z,5.00
2018-06-08T12:44:35.270Z,5.10
2018-06-08T12:45:35.511Z,5.10
2018-06-08T12:46:35.753Z,4.80
2018-06-08T12:47:35.993Z,5.60
2018-06-08T12:48:36.235Z,4.90
2018-06-08T12:49:36.473Z,5.30
2018-06-08T12:50:36.715Z,5.10
2018-06-08T12:51:36.955Z,5.40
2018-06-08T12:52:37.196Z,5.00
2018-06-08T12:53:37.437Z,4.70
2018-06-08T12:54:37.676Z,4.80
2018-06-08T12:55:37.973Z,5.00
2018-06-08T12:56:38.154Z,5.50
2018-06-08T12:57:38.398Z,5.40
2018-06-08T12:58:38.641Z,5.10
2018-06-08T12:59:38.879Z,4.80
2018-06-08T13:00:39.119Z,5.10
2018-06-08T13:01:39.361Z,5.30
2018-06-08T13:02:39.601Z,5.30
2018-06-08T13:03:39.840Z,5.30
2018-06-08T13:04:40.082Z,5.00
2018-06-08T13:05:40.322Z,5.10
2018-06-08T13:06:40.561Z,5.40
2018-06-08T13:07:40.807Z,4.90
2018-06-08T13:08:41.049Z,4.70
2018-06-08T13:09:41.294Z,4.70
2018-06-08T13:10:41.536Z,5.00
2018-06-08T13:11:41.779Z,5.50
2018-06-08T13:12:42.016Z,4.90
2018-06-08T13:13:42.263Z,4.80
2018-06-08T13:14:42.504Z,5.30
2018-06-08T13:15:42.766Z,4.90
2018-06-08T13:16:42.988Z,4.70
2018-06-08T13:17:43.228Z,4.90
2018-06-08T13:18:43.469Z,4.80
2018-06-08T13:19:43.711Z,5.10
2018-06-08T13:20:43.948Z,4.90